Time;durP1;ratioP1;P1;durP2;ratioP2;P2;SDS_P1;SDS_P2;PMS_P1;PMS_P2;Temp;Humidity;BMP_temperature;BMP_pressure;BME280_temperature;BME280_humidity;BME280_pressure;Samples;Min_cycle;Max_cycle;Signal;HPM_P1;HPM_P2
2023/02/27 00:00:13;;;;;;;2.20;1.30;;;0.60;84.90;1.40;96790.00;;;;5024262;28;20435;-70
2023/02/27 00:03:02;;;;;;;1.60;1.30;;;0.60;84.40;1.20;96796.00;;;;5017980;28;20441;-71
2023/02/27 00:05:50;;;;;;;1.17;1.17;;;0.50;84.80;1.30;96803.00;;;;5019037;28;20475;-72
2023/02/27 00:08:39;;;;;;;1.67;1.57;;;0.50;85.50;1.50;96811.00;;;;5029294;28;20452;-72
2023/02/27 00:11:29;;;;;;;1.13;1.03;;;0.50;85.10;1.30;96804.00;;;;5027661;28;20964;-69
2023/02/27 00:14:18;;;;;;;0.93;0.90;;;0.60;85.50;1.40;96816.00;;;;5028006;28;20444;-70
2023/02/27 00:17:07;;;;;;;1.30;1.17;;;0.60;84.50;1.50;96822.00;;;;5022340;28;20425;-70
2023/02/27 00:19:55;;;;;;;1.30;1.20;;;0.60;84.90;1.40;96823.00;;;;5010785;28;20557;-70
2023/02/27 00:22:45;;;;;;;1.40;1.10;;;0.60;85.20;1.30;96821.00;;;;5021880;28;20437;-70
2023/02/27 00:25:34;;;;;;;1.33;0.87;;;0.50;85.50;1.40;96821.00;;;;5022826;28;20472;-71
2023/02/27 00:28:24;;;;;;;2.40;1.07;;;0.50;84.90;1.50;96824.00;;;;5034676;28;20928;-71
2023/02/27 00:31:13;;;;;;;1.20;1.10;;;0.50;85.90;1.50;96829.00;;;;5015506;28;20967;-71
2023/02/27 00:34:02;;;;;;;1.30;1.20;;;0.50;85.80;1.30;96829.00;;;;5038063;28;21005;-69
2023/02/27 00:36:51;;;;;;;1.10;1.00;;;0.50;85.40;1.40;96839.00;;;;5021934;28;20425;-69
2023/02/27 00:39:41;;;;;;;4.20;1.30;;;0.50;86.60;1.40;96834.00;;;;5010824;28;20449;-72
2023/02/27 00:42:30;;;;;;;1.97;1.27;;;0.50;85.90;1.30;96830.00;;;;5026550;28;20847;-72
2023/02/27 00:45:21;;;;;;;2.00;1.23;;;0.50;86.00;1.30;96843.00;;;;5029474;28;21014;-71
2023/02/27 00:48:09;;;;;;;1.93;1.17;;;0.50;85.40;1.50;96840.00;;;;5025960;28;20432;-71
2023/02/27 00:50:58;;;;;;;2.00;1.50;;;0.50;86.50;1.40;96835.00;;;;5022913;28;21031;-71
2023/02/27 00:53:47;;;;;;;1.83;1.40;;;0.50;86.30;1.40;96830.00;;;;5040386;28;20451;-72
2023/02/27 00:56:36;;;;;;;2.57;1.40;;;0.50;86.70;1.30;96831.00;;;;5016488;28;20478;-71
2023/02/27 00:59:24;;;;;;;1.33;1.33;;;0.40;86.60;1.40;96843.00;;;;5023769;28;20508;-71
2023/02/27 01:02:14;;;;;;;0.87;0.87;;;0.40;87.20;1.30;96835.00;;;;5031418;28;20436;-70
2023/02/27 01:05:04;;;;;;;1.30;1.20;;;0.40;87.00;1.30;96831.00;;;;5009029;28;20477;-71
2023/02/27 01:07:53;;;;;;;1.47;1.37;;;0.40;87.50;1.10;96833.00;;;;5009803;28;20511;-72
2023/02/27 01:10:42;;;;;;;1.80;1.70;;;0.40;86.80;1.30;96841.00;;;;5008846;28;20511;-72
2023/02/27 01:13:31;;;;;;;1.43;1.33;;;0.40;87.20;1.30;96835.00;;;;5032904;28;20972;-72
2023/02/27 01:16:20;;;;;;;1.33;1.27;;;0.40;87.60;1.30;96839.00;;;;5031568;28;20805;-71
2023/02/27 01:19:10;;;;;;;1.37;1.13;;;0.40;88.30;1.20;96839.00;;;;5015309;28;20451;-72
2023/02/27 01:21:58;;;;;;;1.30;1.20;;;0.60;87.80;1.20;96842.00;;;;5022513;28;20504;-71
2023/02/27 01:24:47;;;;;;;2.90;1.63;;;0.30;87.30;0.80;96837.00;;;;5019995;28;20457;-71
2023/02/27 01:27:36;;;;;;;0.90;0.90;;;0.40;86.80;1.10;96840.00;;;;5009467;28;20429;-72
2023/02/27 01:30:24;;;;;;;1.37;1.27;;;0.40;87.40;1.30;96842.00;;;;5010571;28;20428;-69
2023/02/27 01:33:13;;;;;;;1.50;1.40;;;0.40;87.90;1.20;96840.00;;;;5018519;28;20440;-69
2023/02/27 01:36:04;;;;;;;2.60;1.50;;;0.40;88.30;1.00;96834.00;;;;5025427;28;20433;-70
2023/02/27 01:38:53;;;;;;;1.50;1.17;;;0.30;88.50;0.70;96839.00;;;;5012658;28;20425;-69
2023/02/27 01:41:42;;;;;;;1.83;1.63;;;0.30;88.00;0.90;96826.00;;;;5010372;28;20468;-68
2023/02/27 01:44:31;;;;;;;1.17;1.17;;;0.20;88.90;1.10;96836.00;;;;5014828;28;20926;-68
2023/02/27 01:47:20;;;;;;;0.90;0.90;;;0.30;89.00;1.10;96835.00;;;;5035012;28;20439;-68
2023/02/27 01:50:10;;;;;;;1.50;1.30;;;0.30;89.30;0.80;96831.00;;;;5034651;28;20426;-68
2023/02/27 01:53:03;;;;;;;1.20;1.20;;;0.20;89.80;1.00;96836.00;;;;5010059;28;20428;-70
2023/02/27 01:55:54;;;;;;;0.90;0.90;;;0.20;90.00;0.80;96846.00;;;;5011558;28;20452;-69
2023/02/27 01:58:44;;;;;;;1.70;1.27;;;0.10;90.10;0.90;96838.00;;;;5034837;28;20819;-69
2023/02/27 02:01:34;;;;;;;1.10;0.97;;;0.10;90.00;0.80;96843.00;;;;5019237;28;20440;-69
2023/02/27 02:04:27;;;;;;;1.27;1.17;;;0.10;90.20;0.80;96847.00;;;;5023019;28;20441;-69
2023/02/27 02:07:19;;;;;;;2.27;1.20;;;0.00;90.20;0.70;96837.00;;;;5026378;28;20433;-69
2023/02/27 02:10:12;;;;;;;1.40;1.30;;;0.00;90.10;0.70;96844.00;;;;5009089;28;20777;-69
2023/02/27 02:13:01;;;;;;;1.63;1.53;;;-0.10;90.70;0.60;96846.00;;;;5009751;28;20470;-69
2023/02/27 02:16:06;;;;;;;2.43;1.50;;;-0.10;90.80;0.60;96849.00;;;;5009425;28;20421;-69
2023/02/27 02:19:10;;;;;;;1.70;1.47;;;-0.10;90.80;0.50;96848.00;;;;5023179;28;20440;-70
2023/02/27 02:22:38;;;;;;;2.00;1.73;;;-0.20;90.90;0.70;96853.00;;;;5030009;28;20446;-71
2023/02/27 02:26:02;;;;;;;3.83;1.40;;;-0.20;91.20;0.50;96861.00;;;;5009430;28;20461;-69
2023/02/27 02:29:59;;;;;;;1.73;1.43;;;-0.20;91.20;0.40;96861.00;;;;5019423;28;20452;-70
2023/02/27 02:33:36;;;;;;;1.80;1.70;;;-0.20;91.10;0.50;96862.00;;;;5030648;28;21585;-70
2023/02/27 02:37:08;;;;;;;1.17;1.03;;;-0.20;91.50;0.50;96861.00;;;;5012512;28;21231;-71
2023/02/27 02:40:13;;;;;;;2.27;2.07;;;-0.30;91.60;0.40;96860.00;;;;5037940;28;20420;-71
2023/02/27 02:43:09;;;;;;;1.70;1.57;;;-0.30;91.60;0.40;96867.00;;;;5011948;28;20436;-70
2023/02/27 02:46:08;;;;;;;1.43;1.33;;;-0.30;91.70;0.10;96863.00;;;;5012054;28;20567;-70
2023/02/27 02:49:06;;;;;;;1.23;1.00;;;-0.40;92.00;0.30;96863.00;;;;5024108;28;20440;-69
2023/02/27 02:52:04;;;;;;;3.83;1.50;;;-0.40;91.90;0.50;96875.00;;;;5020240;28;20429;-70
2023/02/27 02:55:01;;;;;;;0.87;0.87;;;-0.40;91.90;0.20;96876.00;;;;5027659;28;20524;-67
2023/02/27 02:57:57;;;;;;;1.27;0.83;;;-0.40;92.20;0.00;96884.00;;;;5036903;28;20450;-76
2023/02/27 03:00:54;;;;;;;1.60;1.53;;;-0.40;92.00;0.40;96884.00;;;;5029218;28;20413;-71
2023/02/27 03:03:49;;;;;;;4.37;2.07;;;-0.40;91.80;0.60;96887.00;;;;5012880;28;20494;-72
2023/02/27 03:06:45;;;;;;;1.63;1.53;;;-0.30;91.80;0.50;96882.00;;;;5022343;28;20559;-72
2023/02/27 03:09:39;;;;;;;2.08;1.70;;;-0.30;92.10;0.30;96882.00;;;;5025958;28;20479;-72
2023/02/27 03:12:32;;;;;;;1.80;1.70;;;-0.30;92.10;0.40;96881.00;;;;5022536;28;20940;-70
2023/02/27 03:15:27;;;;;;;1.60;1.50;;;-0.30;92.00;0.40;96887.00;;;;5027379;28;20432;-70
2023/02/27 03:18:23;;;;;;;1.70;1.60;;;-0.40;92.20;0.30;96879.00;;;;5016435;28;20433;-70
2023/02/27 03:21:21;;;;;;;1.83;1.73;;;-0.40;92.50;0.30;96879.00;;;;5012798;28;20437;-70
2023/02/27 03:24:18;;;;;;;1.37;1.33;;;-0.50;92.40;0.10;96881.00;;;;5031666;28;21324;-71
2023/02/27 03:27:09;;;;;;;10.47;1.77;;;-0.50;92.50;0.10;96892.00;;;;5031774;28;20517;-72
2023/02/27 03:30:05;;;;;;;1.53;1.23;;;-0.50;92.30;0.20;96891.00;;;;5031156;28;20469;-75
2023/02/27 03:33:00;;;;;;;1.57;1.47;;;-0.50;91.50;0.40;96894.00;;;;5030663;28;20432;-75
2023/02/27 03:35:56;;;;;;;1.80;1.57;;;1.40;92.30;0.20;96896.00;;;;5015974;28;20433;-72
2023/02/27 03:38:53;;;;;;;4.30;1.50;;;-0.40;91.60;0.50;96895.00;;;;5016017;28;20432;-72
2023/02/27 03:41:51;;;;;;;1.73;1.30;;;-0.40;91.50;0.40;96896.00;;;;5017952;28;20447;-71
2023/02/27 03:44:53;;;;;;;1.33;1.30;;;-0.40;91.40;0.40;96896.00;;;;5023896;28;20455;-71
2023/02/27 03:47:43;;;;;;;2.60;1.90;;;-0.40;91.30;0.30;96904.00;;;;5026398;28;20468;-71
2023/02/27 03:50:32;;;;;;;1.37;1.23;;;-0.40;91.20;0.20;96900.00;;;;5021075;28;20484;-72
2023/02/27 03:53:30;;;;;;;2.10;1.87;;;-0.50;91.40;0.30;96904.00;;;;5024903;28;20468;-72
2023/02/27 03:56:24;;;;;;;1.67;1.57;;;-0.50;91.60;0.30;96904.00;;;;5025028;28;20444;-71
2023/02/27 03:59:13;;;;;;;2.50;1.63;;;-0.50;92.00;0.30;96908.00;;;;5033553;28;20968;-72
2023/02/27 04:02:03;;;;;;;4.63;1.70;;;1.20;92.40;0.10;96900.00;;;;5018179;28;20808;-72
2023/02/27 04:04:53;;;;;;;1.93;1.83;;;-0.60;91.50;0.20;96910.00;;;;5011756;28;20437;-72
2023/02/27 04:07:51;;;;;;;1.30;1.20;;;-0.60;92.10;0.10;96905.00;;;;5029800;28;20502;-72
2023/02/27 04:11:07;;;;;;;2.77;1.50;;;-0.60;92.30;0.10;96917.00;;;;5030190;28;20426;-72
2023/02/27 04:14:34;;;;;;;2.60;1.50;;;-0.70;92.10;0.20;96909.00;;;;5010955;28;20457;-72
2023/02/27 04:17:26;;;;;;;1.73;1.20;;;-0.70;92.30;0.00;96918.00;;;;5020179;28;20453;-71
2023/02/27 04:20:36;;;;;;;1.17;1.17;;;-0.70;92.30;-0.10;96914.00;;;;5036185;28;21193;-72
2023/02/27 04:23:35;;;;;;;1.80;1.70;;;-0.80;92.70;0.00;96922.00;;;;5012199;28;20449;-72
2023/02/27 04:26:31;;;;;;;1.83;1.47;;;-0.80;92.60;-0.20;96910.00;;;;5010357;28;20547;-72
2023/02/27 04:29:29;;;;;;;2.30;2.00;;;-0.80;92.30;0.00;96931.00;;;;5010995;28;20425;-72
2023/02/27 04:32:26;;;;;;;4.00;1.30;;;-0.90;92.20;0.00;96936.00;;;;5030263;28;20428;-72
2023/02/27 04:35:24;;;;;;;1.47;1.37;;;-0.90;92.60;0.00;96940.00;;;;5033577;28;20966;-73
2023/02/27 04:38:20;;;;;;;1.53;1.43;;;-0.70;92.60;-0.20;96935.00;;;;5018889;28;20519;-72
2023/02/27 04:41:13;;;;;;;2.30;1.87;;;-0.90;92.50;-0.20;96935.00;;;;5010401;28;20433;-72
2023/02/27 04:44:05;;;;;;;1.77;1.67;;;-0.90;92.60;-0.30;96933.00;;;;5009981;28;20995;-72
2023/02/27 04:46:56;;;;;;;1.73;1.63;;;-0.90;93.00;-0.40;96938.00;;;;5025823;28;20487;-72
2023/02/27 04:49:51;;;;;;;1.30;1.20;;;-0.90;93.40;-0.10;96939.00;;;;5032542;28;21076;-72
2023/02/27 04:52:45;;;;;;;6.17;1.90;;;-1.00;93.50;0.00;96940.00;;;;5023749;28;20436;-72
2023/02/27 04:55:39;;;;;;;3.37;1.77;;;-1.00;93.90;-0.10;96940.00;;;;5022390;28;20443;-72
2023/02/27 04:58:34;;;;;;;9.50;1.77;;;-1.00;94.00;-0.10;96937.00;;;;5022089;28;20425;-72
2023/02/27 05:01:30;;;;;;;1.50;1.40;;;-1.00;94.30;0.00;96942.00;;;;5010632;28;20977;-72
2023/02/27 05:04:21;;;;;;;1.07;1.00;;;-1.00;94.00;-0.20;96949.00;;;;5017955;28;20459;-72
2023/02/27 05:07:17;;;;;;;2.00;1.80;;;-1.00;93.30;-0.10;96939.00;;;;5018987;28;20477;-72
2023/02/27 05:10:14;;;;;;;3.30;2.00;;;-0.90;93.40;-0.40;96942.00;;;;5019945;28;20433;-72
2023/02/27 05:13:10;;;;;;;2.23;1.40;;;-0.90;93.60;-0.30;96946.00;;;;5016745;28;20430;-72
2023/02/27 05:16:05;;;;;;;1.80;1.50;;;-0.80;93.60;0.00;96945.00;;;;5025647;28;20441;-72
2023/02/27 05:18:55;;;;;;;1.90;1.63;;;-0.90;93.80;0.00;96960.00;;;;5014109;28;20475;-72
2023/02/27 05:21:55;;;;;;;1.77;1.63;;;-0.90;94.00;0.10;96953.00;;;;5022271;28;20669;-72
2023/02/27 05:24:52;;;;;;;1.30;1.20;;;-0.90;94.50;0.10;96959.00;;;;5013102;28;20453;-72
2023/02/27 05:27:46;;;;;;;1.20;1.20;;;-0.90;94.70;0.10;96962.00;;;;5015939;28;20480;-73
2023/02/27 05:30:41;;;;;;;2.33;1.50;;;-0.90;94.80;0.00;96972.00;;;;5012886;28;20425;-72
2023/02/27 05:33:34;;;;;;;1.90;1.57;;;-0.90;94.90;0.00;96974.00;;;;5019635;28;20450;-71
2023/02/27 05:36:31;;;;;;;1.97;1.67;;;-0.90;94.80;0.10;96971.00;;;;5028033;28;20424;-72
2023/02/27 05:39:21;;;;;;;4.17;2.40;;;-0.80;94.80;0.10;96979.00;;;;5010475;28;20488;-72
2023/02/27 05:42:16;;;;;;;2.40;1.87;;;-0.80;94.90;-0.30;96977.00;;;;5015555;28;20448;-72
2023/02/27 05:45:12;;;;;;;9.93;1.90;;;-0.90;94.80;-0.10;96989.00;;;;5022323;28;20490;-72
2023/02/27 05:48:08;;;;;;;3.73;1.97;;;-0.90;95.10;-0.20;96977.00;;;;5011717;28;20549;-73
2023/02/27 05:50:58;;;;;;;1.83;1.73;;;-0.90;95.30;-0.20;96980.00;;;;5009590;28;20441;-72
2023/02/27 05:53:53;;;;;;;1.73;1.63;;;-0.90;95.50;-0.20;96981.00;;;;5012006;28;20814;-72
2023/02/27 05:56:46;;;;;;;2.50;2.07;;;-0.90;95.70;-0.20;96993.00;;;;5019321;28;20422;-72
2023/02/27 05:59:42;;;;;;;2.13;1.97;;;-0.90;95.80;-0.20;96987.00;;;;5024617;28;20445;-72
2023/02/27 06:02:33;;;;;;;1.80;1.60;;;-0.90;96.30;0.00;97000.00;;;;5027060;28;20419;-72
2023/02/27 06:05:21;;;;;;;1.23;1.13;;;-0.90;96.30;0.10;97003.00;;;;5025551;28;20495;-72
2023/02/27 06:08:11;;;;;;;2.57;1.83;;;-0.90;96.60;0.10;96998.00;;;;5016808;28;20475;-72
2023/02/27 06:11:00;;;;;;;1.50;1.20;;;-0.90;96.80;0.10;96999.00;;;;5019239;28;20452;-72
2023/02/27 06:13:49;;;;;;;2.27;2.07;;;-0.90;96.40;0.20;97006.00;;;;5033710;28;20438;-72
2023/02/27 06:16:38;;;;;;;1.90;1.80;;;-0.80;96.70;0.00;97023.00;;;;5013946;28;20492;-72
2023/02/27 06:19:41;;;;;;;1.90;1.80;;;-0.80;96.40;0.20;97021.00;;;;5084437;28;20760;-71
2023/02/27 06:22:29;;;;;;;2.60;1.60;;;-0.80;96.40;0.40;97025.00;;;;5054553;28;20950;-71
2023/02/27 06:25:18;;;;;;;3.60;1.97;;;-0.70;96.50;0.50;97039.00;;;;5047802;28;20463;-72
2023/02/27 06:28:08;;;;;;;2.87;2.13;;;-0.70;96.40;0.50;97043.00;;;;5055818;28;20497;-72
2023/02/27 06:30:57;;;;;;;1.73;1.40;;;-0.60;96.80;0.50;97051.00;;;;5056682;28;20423;-72
2023/02/27 06:33:45;;;;;;;3.13;2.57;;;-0.50;97.00;0.60;97058.00;;;;5054130;28;21012;-72
2023/02/27 06:36:36;;;;;;;3.03;2.27;;;-0.50;96.80;0.70;97055.00;;;;5060635;28;20439;-72
2023/02/27 06:39:24;;;;;;;2.83;1.63;;;-0.50;97.10;0.70;97049.00;;;;5055645;28;20424;-72
2023/02/27 06:42:13;;;;;;;3.10;2.13;;;-0.40;97.20;0.70;97054.00;;;;5051935;28;20431;-73
2023/02/27 06:45:02;;;;;;;5.80;3.23;;;-0.40;97.30;0.30;97054.00;;;;5089098;28;20440;-72
2023/02/27 06:47:51;;;;;;;4.10;3.57;;;-0.40;97.20;0.30;97065.00;;;;5105604;28;20465;-72
2023/02/27 06:50:39;;;;;;;2.67;2.47;;;-0.40;97.20;0.70;97070.00;;;;5091481;28;20426;-72
2023/02/27 06:53:29;;;;;;;4.50;2.40;;;-0.40;97.30;0.90;97059.00;;;;5109946;28;20453;-72
2023/02/27 06:56:18;;;;;;;6.20;3.23;;;-0.30;97.70;0.90;97072.00;;;;5097379;28;20492;-72
2023/02/27 06:59:07;;;;;;;8.63;2.70;;;-0.20;97.60;0.90;97053.00;;;;5087830;28;20426;-72
2023/02/27 07:01:57;;;;;;;6.40;2.23;;;-0.20;97.40;1.20;97069.00;;;;5101335;28;20428;-72
2023/02/27 07:04:46;;;;;;;2.43;2.17;;;-0.10;97.40;1.40;97068.00;;;;5097807;28;20440;-71
2023/02/27 07:07:35;;;;;;;5.10;2.97;;;0.00;97.50;1.40;97070.00;;;;5092107;28;20439;-71
2023/02/27 07:10:27;;;;;;;2.80;2.53;;;0.10;97.60;1.50;97074.00;;;;5105335;28;20421;-71
2023/02/27 07:13:16;;;;;;;4.23;2.77;;;0.20;97.00;1.40;97077.00;;;;5114266;28;20419;-71
2023/02/27 07:16:07;;;;;;;4.00;2.30;;;0.30;96.70;1.60;97074.00;;;;5107923;28;20802;-71
2023/02/27 07:18:56;;;;;;;20.13;7.90;;;0.30;96.20;1.80;97075.00;;;;5105614;28;20468;-71
2023/02/27 07:21:45;;;;;;;7.17;5.07;;;0.50;95.90;1.90;97072.00;;;;5105571;28;20482;-71
2023/02/27 07:24:33;;;;;;;3.40;3.10;;;0.60;94.90;2.10;97074.00;;;;5105986;28;20506;-71
2023/02/27 07:27:23;;;;;;;3.30;1.93;;;0.70;94.80;2.20;97080.00;;;;5106508;28;20432;-71
2023/02/27 07:30:13;;;;;;;3.10;1.87;;;0.80;94.20;2.10;97073.00;;;;5083603;28;21384;-72
2023/02/27 07:33:02;;;;;;;4.60;2.77;;;0.90;93.30;2.20;97078.00;;;;5097825;28;20438;-72
2023/02/27 07:35:51;;;;;;;6.50;3.90;;;1.00;92.90;2.50;97077.00;;;;5074384;28;20446;-72
2023/02/27 07:38:40;;;;;;;3.00;2.70;;;1.10;93.10;2.40;97082.00;;;;5087510;28;20421;-70
2023/02/27 07:41:28;;;;;;;2.23;1.70;;;1.20;92.90;2.50;97075.00;;;;5092975;28;20953;-70
2023/02/27 07:44:20;;;;;;;1.90;1.70;;;1.20;92.20;2.40;97073.00;;;;5091346;28;20437;-69
2023/02/27 07:47:10;;;;;;;3.17;2.07;;;1.30;91.80;2.50;97082.00;;;;5091611;28;20458;-69
2023/02/27 07:49:58;;;;;;;3.17;1.73;;;1.40;91.70;2.60;97073.00;;;;5090572;28;20861;-71
2023/02/27 07:52:47;;;;;;;1.53;1.40;;;1.30;91.40;2.60;97078.00;;;;5091452;28;20426;-71
2023/02/27 07:55:36;;;;;;;4.63;2.03;;;1.50;91.50;2.60;97081.00;;;;5090227;28;20478;-71
2023/02/27 07:58:25;;;;;;;1.37;1.27;;;1.40;91.30;2.40;97068.00;;;;5097335;28;20517;-69
2023/02/27 08:01:15;;;;;;;3.27;1.93;;;1.40;90.40;2.70;97072.00;;;;5090265;28;20422;-70
2023/02/27 08:04:04;;;;;;;1.83;1.47;;;1.50;90.80;2.70;97070.00;;;;5071715;28;20466;-70
2023/02/27 08:06:52;;;;;;;1.83;1.57;;;1.50;90.50;2.30;97070.00;;;;5086220;28;20507;-69
2023/02/27 08:09:41;;;;;;;3.03;2.27;;;1.50;89.80;2.80;97076.00;;;;5085430;28;20523;-68
2023/02/27 08:12:30;;;;;;;2.13;1.90;;;1.60;90.30;3.10;97079.00;;;;5088500;28;20513;-68
2023/02/27 08:15:19;;;;;;;4.17;2.60;;;1.60;90.40;3.00;97074.00;;;;5082675;28;20439;-69
2023/02/27 08:18:09;;;;;;;3.17;2.20;;;1.70;90.30;3.10;97075.00;;;;5071321;28;20458;-70
2023/02/27 08:20:58;;;;;;;2.03;1.93;;;1.80;90.10;3.40;97085.00;;;;5082844;28;20429;-70
2023/02/27 08:23:46;;;;;;;2.10;1.90;;;1.90;89.50;3.00;97075.00;;;;5085002;28;20437;-69
2023/02/27 08:26:35;;;;;;;2.27;1.90;;;2.00;88.90;2.70;97072.00;;;;5071844;28;20431;-68
2023/02/27 08:29:24;;;;;;;4.90;3.20;;;2.00;87.20;3.00;97082.00;;;;5070554;28;20539;-69
2023/02/27 08:32:13;;;;;;;3.57;2.63;;;2.00;88.00;3.30;97083.00;;;;5072075;28;20419;-69
2023/02/27 08:35:03;;;;;;;3.53;2.10;;;2.00;88.20;3.70;97086.00;;;;5072319;28;20446;-69
2023/02/27 08:37:52;;;;;;;2.20;1.90;;;2.10;88.10;3.20;97085.00;;;;5078978;28;20835;-69
2023/02/27 08:40:40;;;;;;;2.83;2.07;;;2.20;85.90;2.90;97091.00;;;;5082813;28;20469;-67
2023/02/27 08:43:29;;;;;;;2.83;1.53;;;2.10;85.10;2.50;97092.00;;;;5085596;28;20446;-74
2023/02/27 08:46:17;;;;;;;7.30;4.40;;;2.10;84.00;3.30;97089.00;;;;5076314;28;20433;-72
2023/02/27 08:49:06;;;;;;;2.00;1.80;;;2.20;86.10;3.00;97088.00;;;;5089800;28;20471;-68
2023/02/27 08:51:56;;;;;;;4.03;1.60;;;2.10;84.70;3.30;97090.00;;;;5074533;28;20430;-70
2023/02/27 08:54:45;;;;;;;2.73;2.07;;;2.30;85.10;2.80;97083.00;;;;5079756;28;20575;-70
2023/02/27 08:57:34;;;;;;;2.40;1.73;;;2.30;83.50;4.10;97100.00;;;;5085053;28;20429;-67
2023/02/27 09:00:23;;;;;;;4.23;2.33;;;2.50;84.70;3.70;97097.00;;;;5091010;28;20441;-70
2023/02/27 09:03:12;;;;;;;2.90;1.97;;;2.60;81.90;4.00;97111.00;;;;5090991;28;20476;-69
2023/02/27 09:06:02;;;;;;;3.03;1.70;;;2.70;82.20;4.20;97104.00;;;;5090890;28;20460;-68
2023/02/27 09:08:52;;;;;;;2.40;1.60;;;2.80;82.20;4.00;97106.00;;;;5089437;28;20504;-66
2023/02/27 09:11:41;;;;;;;2.30;1.70;;;2.90;81.40;4.30;97106.00;;;;5090036;28;20429;-66
2023/02/27 09:14:30;;;;;;;2.90;2.10;;;3.00;81.10;4.60;97105.00;;;;5091649;28;20445;-66
2023/02/27 09:17:18;;;;;;;1.63;1.53;;;3.20;80.50;4.30;97103.00;;;;5077300;28;20429;-68
2023/02/27 09:20:10;;;;;;;3.17;1.80;;;3.30;80.50;3.70;97099.00;;;;5090784;28;20484;-71
2023/02/27 09:22:59;;;;;;;1.30;1.20;;;3.40;77.90;4.10;97100.00;;;;5090025;28;20421;-66
2023/02/27 09:25:49;;;;;;;3.63;1.80;;;3.30;79.80;5.00;97115.00;;;;5089941;28;20468;-68
2023/02/27 09:28:39;;;;;;;3.47;1.97;;;3.50;79.50;4.90;97120.00;;;;5089870;28;20523;-67
2023/02/27 09:31:28;;;;;;;2.53;2.33;;;3.70;77.60;3.30;97102.00;;;;5089147;28;20438;-76
2023/02/27 09:34:20;;;;;;;1.83;1.67;;;3.50;75.20;4.30;97103.00;;;;5087188;28;20977;-68
2023/02/27 09:37:09;;;;;;;2.80;1.20;;;3.40;77.50;4.70;97114.00;;;;5081382;28;20944;-66
2023/02/27 09:39:57;;;;;;;2.77;1.90;;;3.50;76.90;5.00;97111.00;;;;5087263;28;21022;-67
2023/02/27 09:42:48;;;;;;;2.20;1.33;;;3.70;76.60;5.30;97117.00;;;;5070448;28;20418;-67
2023/02/27 09:45:38;;;;;;;1.70;1.60;;;4.00;77.00;4.10;97109.00;;;;5087557;28;20425;-66
2023/02/27 09:48:32;;;;;;;1.33;1.23;;;3.90;73.50;5.10;97115.00;;;;5093742;28;20513;-69
2023/02/27 09:51:22;;;;;;;1.37;1.27;;;4.00;75.80;6.10;97122.00;;;;5078496;28;20429;-66
2023/02/27 09:54:13;;;;;;;1.10;1.10;;;4.20;74.80;5.60;97114.00;;;;5087894;28;20503;-73
2023/02/27 09:57:05;;;;;;;2.43;1.60;;;4.50;72.70;5.70;97117.00;;;;5089374;28;20199;-70
2023/02/27 10:00:00;;;;;;;1.30;1.20;;;4.50;72.70;5.50;97107.00;;;;5088532;28;20553;-67
2023/02/27 10:03:01;;;;;;;1.40;1.30;;;4.60;71.30;5.50;97105.00;;;;5089813;28;20799;-71
2023/02/27 10:06:03;;;;;;;1.67;1.57;;;4.60;70.50;6.20;97114.00;;;;5089090;28;20198;-67
2023/02/27 10:09:13;;;;;;;2.10;1.43;;;4.70;71.20;5.50;97109.00;;;;5090312;28;20226;-69
2023/02/27 10:12:18;;;;;;;4.00;1.87;;;4.70;67.50;5.80;97104.00;;;;5089081;28;20210;-69
2023/02/27 10:15:14;;;;;;;4.00;1.47;;;4.70;68.40;5.70;97102.00;;;;5088782;28;20219;-69
2023/02/27 10:18:07;;;;;;;5.07;3.63;;;4.70;68.20;5.70;97110.00;;;;5088951;28;20211;-68
2023/02/27 10:21:18;;;;;;;3.30;1.93;;;4.60;69.20;5.20;97107.00;;;;5087624;28;20223;-69
2023/02/27 10:24:22;;;;;;;4.10;2.30;;;4.60;66.70;4.90;97110.00;;;;5088604;28;20215;-66
2023/02/27 10:27:16;;;;;;;4.10;2.00;;;4.40;68.10;5.30;97120.00;;;;5079436;28;20211;-65
2023/02/27 10:30:21;;;;;;;3.07;1.70;;;4.30;68.60;5.40;97114.00;;;;5088825;28;20708;-67
2023/02/27 10:33:25;;;;;;;1.83;1.50;;;4.40;67.60;4.60;97119.00;;;;5088653;28;20210;-73
2023/02/27 10:36:17;;;;;;;2.97;1.20;;;4.30;67.40;4.10;97105.00;;;;5074441;28;20199;-70
2023/02/27 10:39:22;;;;;;;4.53;2.37;;;4.00;66.80;5.50;97116.00;;;;5080617;28;20197;-67
2023/02/27 10:42:14;;;;;;;2.67;2.47;;;3.90;70.20;6.00;97122.00;;;;5078359;28;20200;-67
2023/02/27 10:45:03;;;;;;;2.40;1.80;;;4.30;70.30;5.40;97119.00;;;;5078596;28;20564;-68
2023/02/27 10:47:54;;;;;;;1.13;1.07;;;4.30;69.40;5.40;97116.00;;;;5071199;28;20427;-67
2023/02/27 10:50:45;;;;;;;1.80;1.40;;;4.50;68.90;5.80;97118.00;;;;5073661;28;20776;-67
2023/02/27 10:53:34;;;;;;;2.00;1.80;;;4.60;69.40;6.40;97119.00;;;;5069264;28;20269;-67
2023/02/27 10:56:26;;;;;;;2.03;1.33;;;4.70;69.40;6.30;97115.00;;;;5076824;28;20703;-68
2023/02/27 10:59:23;;;;;;;1.60;1.50;;;4.90;68.70;6.90;97120.00;;;;5088806;28;20743;-70
2023/02/27 11:02:25;;;;;;;2.50;1.47;;;5.20;69.00;7.00;97116.00;;;;5087871;28;20290;-69
2023/02/27 11:05:25;;;;;;;1.93;1.83;;;5.40;67.20;7.00;97112.00;;;;5090519;28;20230;-69
2023/02/27 11:08:22;;;;;;;2.57;1.70;;;5.60;67.40;5.20;97095.00;;;;5093012;28;20203;-69
2023/02/27 11:11:12;;;;;;;3.60;1.50;;;5.40;64.60;5.90;97091.00;;;;5087890;28;20227;-69
2023/02/27 11:14:24;;;;;;;2.30;1.60;;;5.40;63.80;5.50;97082.00;;;;5073461;28;20224;-71
2023/02/27 11:17:24;;;;;;;1.73;1.63;;;5.30;64.30;5.60;97091.00;;;;5091907;28;20208;-70
2023/02/27 11:20:35;;;;;;;2.90;1.73;;;5.10;63.30;4.50;97085.00;;;;5087615;28;20234;-72
2023/02/27 11:23:25;;;;;;;2.43;1.63;;;4.80;63.60;5.70;97086.00;;;;5091652;28;20223;-69
2023/02/27 11:26:20;;;;;;;4.77;1.90;;;4.70;66.00;6.30;97079.00;;;;5092007;28;20199;-69
2023/02/27 11:29:17;;;;;;;2.60;1.50;;;4.90;65.60;6.80;97086.00;;;;5088879;28;20265;-69
2023/02/27 11:32:13;;;;;;;3.33;1.83;;;5.00;66.50;7.70;97093.00;;;;5091921;28;20230;-69
2023/02/27 11:35:03;;;;;;;3.00;1.80;;;5.50;67.00;7.90;97076.00;;;;5084603;28;20228;-69
2023/02/27 11:37:55;;;;;;;2.47;1.90;;;5.90;66.00;7.40;97093.00;;;;5086962;28;20257;-68
2023/02/27 11:40:52;;;;;;;4.33;1.90;;;6.20;64.00;5.40;97064.00;;;;5071840;28;20260;-67
2023/02/27 11:43:49;;;;;;;2.70;1.37;;;5.80;61.30;6.60;97074.00;;;;5069954;28;20235;-68
2023/02/27 11:46:37;;;;;;;1.90;1.30;;;5.70;62.50;6.40;97069.00;;;;5081353;28;20724;-69
2023/02/27 11:49:35;;;;;;;3.17;2.33;;;5.70;63.80;7.50;97069.00;;;;5085715;28;20207;-67
2023/02/27 11:52:33;;;;;;;3.90;3.40;;;6.00;66.10;8.90;97078.00;;;;5084369;28;20402;-67
2023/02/27 11:55:26;;;;;;;5.17;1.90;;;6.50;66.80;8.90;97082.00;;;;5091387;28;20226;-68
2023/02/27 11:58:20;;;;;;;4.90;3.77;;;6.90;63.70;8.80;97072.00;;;;5091140;28;20328;-67
2023/02/27 12:01:20;;;;;;;2.30;1.83;;;7.20;62.40;9.30;97053.00;;;;5090422;28;20199;-67
2023/02/27 12:04:17;;;;;;;1.90;1.40;;;7.50;60.90;9.60;97057.00;;;;5087949;28;20207;-67
2023/02/27 12:07:16;;;;;;;2.30;1.73;;;7.90;61.30;10.10;97067.00;;;;5091472;28;20207;-67
2023/02/27 12:10:13;;;;;;;2.13;1.93;;;8.20;60.00;11.00;97062.00;;;;5090884;28;20202;-67
2023/02/27 12:13:11;;;;;;;3.03;1.93;;;8.70;61.10;10.40;97085.00;;;;5078718;28;20600;-68
2023/02/27 12:16:07;;;;;;;3.60;1.90;;;9.00;58.00;10.40;97087.00;;;;5078084;28;20196;-67
2023/02/27 12:19:02;;;;;;;1.80;1.67;;;9.00;58.40;10.90;97061.00;;;;5086867;28;20219;-67
2023/02/27 12:21:56;;;;;;;2.97;1.97;;;9.30;57.90;11.10;97053.00;;;;5090813;28;20199;-68
2023/02/27 12:24:52;;;;;;;4.80;2.10;;;9.50;58.50;11.30;97042.00;;;;5081339;28;20226;-67
2023/02/27 12:27:49;;;;;;;4.80;2.10;;;9.70;56.80;12.90;97079.00;;;;5090515;28;20612;-67
2023/02/27 12:30:45;;;;;;;3.77;1.60;;;;;12.00;97112.00;;;;5090641;28;20219;-67
2023/02/27 12:33:42;;;;;;;1.80;1.60;;;10.60;54.00;10.40;97105.00;;;;5085901;28;20228;-67
2023/02/27 12:36:31;;;;;;;2.13;1.53;;;10.40;53.70;10.10;97109.00;;;;5077505;28;20203;-67
2023/02/27 12:39:22;;;;;;;2.40;2.20;;;9.90;54.10;9.90;97121.00;;;;5087687;28;20203;-67
2023/02/27 12:42:56;;;;;;;2.23;1.43;;;9.50;54.60;10.20;97069.00;;;;5091434;28;20213;-67
2023/02/27 12:46:00;;;;;;;2.87;2.57;;;9.20;55.00;12.00;97068.00;;;;5008778;28;20317;-67
2023/02/27 12:49:08;;;;;;;2.20;2.00;;;9.50;55.70;12.20;97117.00;;;;5088723;28;20666;-67
2023/02/27 12:52:14;;;;;;;2.03;1.80;;;9.90;55.90;11.30;97124.00;;;;5084402;28;20227;-67
2023/02/27 12:55:11;;;;;;;2.60;1.77;;;10.00;55.40;8.60;97110.00;;;;5089655;28;20222;-67
2023/02/27 12:58:35;;;;;;;2.37;2.17;;;9.60;53.80;7.60;97094.00;;;;5089909;28;20608;-68
2023/02/27 13:01:39;;;;;;;2.47;1.93;;;8.60;54.30;9.70;97042.00;;;;5088656;28;20203;-67
2023/02/27 13:04:40;;;;;;;3.23;2.13;;;8.10;56.50;11.40;97108.00;;;;5090947;28;20215;-68